Penn National Gaming Inc (PENN) Latest Bloomsberg Price


Mffais Ranking #419 Overall / #2 Industry
Industry: Casinos And Gaming

Number of Companies: 147 (Ranking #1188 Overall/#6 Industry)
Inflow: $ 125,248 (K) (Ranking #834 Overall/#5 Industry)
Outflow: $ -109,607 (K)
Mffais Flow: $ 15,640 (K) (Ranking #419 Overall/#2 Industry)


Receive a FREE weekly executive review of stocks moving into the top 10, taking the top industy spot or moving up within their industry. Sent directly to your Inbox every Saturday. Sign up today and get last week's review immediately sent to you.

We value and respect your privacy. Please read our Terms and Conditions which states our firm commitment to your privacy. Your email address will not be shared with a third party, nor will it be sold or used for purposes other than subscription for the weekly review.

Owner CPOR Shares Action Qty Chg Invested (K) Total Current Value (K)
Eagle Asset Management Inc 2016-09-30 2,450,296 Added More 2,311,791 $ 33,127 $ 35,112
Rs Investment Management Co Llc 2016-06-30 1,663,114 Added More 1,623,075 $ 22,641 $ 23,200
Monarch Partners Asset Management Llc 2016-09-30 1,177,664 New Holding 1,177,664 $ 16,875 $ 16,875
Putnam Investments Llc 2016-09-30 3,612,272 Added More 511,642 $ 7,331 $ 51,763
Wingspan Investment Management Lp 2016-09-30 431,100 New Holding 431,100 $ 6,177 $ 6,177
Manikay Partners Llc 2016-09-30 1,400,000 Added More 402,100 $ 5,762 $ 20,062
New York State Common Retirement Fund 2016-09-30 904,502 Added More 337,308 $ 4,833 $ 12,961
Everpoint Asset Management Llc 2016-09-30 220,600 New Holding 220,600 $ 3,161 $ 3,161
Secor Capital Advisors Lp 2016-09-30 312,526 Added More 205,575 $ 2,945 $ 4,478
Marshall Wace Llp 2016-09-30 591,688 Added More 173,591 $ 2,487 $ 8,478
Scopus Asset Management L P 2016-09-30 1,700,000 Added More 150,000 $ 2,149 $ 24,361
Emerald Advisers Inc Pa 2016-09-30 1,610,063 Added More 146,320 $ 2,096 $ 23,072
Cipher Capital Lp 2016-09-30 507,022 Added More 146,294 $ 2,096 $ 7,265
Emerald Acquisition Ltd 2016-09-30 216,101 Added More 134,055 $ 1,921 $ 3,096
Gsa Capital Partners Llp 2016-09-30 258,161 Added More 124,064 $ 1,777 $ 3,699
Spark Investment Management Llc 2016-09-30 225,800 Added More 104,600 $ 1,498 $ 3,235
Schonfeld Strategic Advisors Llc 2016-09-30 111,096 Added More 81,190 $ 1,163 $ 1,592
Menta Capital Llc 2016-09-30 228,988 Added More 63,375 $ 908 $ 3,281
Stifel Financial Corp 2016-09-30 99,480 Added More 51,204 $ 733 $ 1,425
Capstone Investment Advisors Llc 2016-09-30 50,096 New Holding 50,096 $ 717 $ 717
Sentinel Asset Management Inc 2016-09-30 1,090,324 Added More 42,120 $ 603 $ 15,624
Emerald Mutual Fund Advisers Trust 2016-09-30 847,856 Added More 36,050 $ 516 $ 12,149
Grt Capital Partners L L C 2016-09-30 23,523 New Holding 23,523 $ 337 $ 337
Spot Trading L L C 2016-09-30 21,713 New Holding 21,713 $ 311 $ 311
Hanlon Investment Management Inc 2016-09-30 557,783 Added More 20,000 $ 286 $ 7,993
Connable Office Inc 2016-09-30 18,600 New Holding 18,600 $ 266 $ 266
Raymond James Associates 2016-09-30 18,589 New Holding 18,589 $ 266 $ 266
Simplex Trading Llc 2016-09-30 19,369 Added More 17,164 $ 245 $ 277
Walleye Trading Llc 2016-09-30 22,652 Added More 15,352 $ 219 $ 324
Princeton Alpha Management Lp 2016-09-30 33,769 Added More 14,206 $ 203 $ 483
Squarepoint Ops Llc 2016-09-30 13,100 New Holding 13,100 $ 187 $ 187
Sg Americas Securities Llc 2016-09-30 12,317 New Holding 12,317 $ 176 $ 176
Sterling Capital Management Llc 2016-09-30 29,144 Added More 11,815 $ 169 $ 417
Cutler Group Lp 2016-09-30 14,754 Added More 11,354 $ 162 $ 211
Acrospire Investment Management Llc 2016-09-30 18,679 Added More 10,243 $ 146 $ 267
Symphony Asset Management Llc 2016-09-30 46,876 Added More 9,859 $ 141 $ 671
Invictus Rg 2016-09-30 11,255 Added More 9,385 $ 134 $ 161
Boothbay Fund Management Llc 2016-09-30 23,584 Added More 8,391 $ 120 $ 337
Point72 Asia Hong Kong Ltd 2016-09-30 6,100 New Holding 6,100 $ 87 $ 87
Dynamic Capital Management Ltd 2016-09-30 42,091 Added More 5,069 $ 72 $ 603
Thrivent Financial For Lutherans 2016-09-30 326,440 Added More 3,940 $ 56 $ 4,677
Horizon Kinetics Llc 2016-09-30 31,806 Added More 2,642 $ 37 $ 455
California State Teachers Retirement System 2016-09-30 157,820 Added More 1,500 $ 21 $ 2,261
Van Eck Associates Corp 2016-09-30 8,634 Added More 1,141 $ 16 $ 123
Guggenheim Capital Llc 2016-09-30 66,239 Added More 677 $ 9 $ 949
Hsbc Holdings Plc 2016-09-30 11,000 Added More 557 $ 7 $ 157
Cable Hill Partners Llc 2016-09-30 457 New Holding 457 $ 6 $ 6
Zurcher Kantonalbank Zurich Cantonalbank 2016-09-30 2,009 Added More 404 $ 5 $ 28
Tygh Capital Management Inc 2016-09-30 215,644 Added More 275 $ 3 $ 3,090
Advisor Group Inc 2016-09-30 308 Added More 252 $ 3 $ 4
Us Bancorp De 2016-09-30 5,738 Added More 216 $ 3 $ 82
Ladenburg Thalmann Financial Services Inc 2016-09-30 2,899 Added More 199 $ 2 $ 41
Archford Capital Strategies Llc 2016-09-30 347 Added More 145 $ 2 $ 4
Blackrock Inc 2016-09-30 6,199 Added More 138 $ 1 $ 88
Envestnet Asset Management Inc 2016-09-30 1,697 Added More 104 $ 1 $ 24
American International Group Inc 2016-09-30 42,980 Added More 65 $ 0 $ 615
Pdt Partners Llc 2016-09-30 148,400 No Change 0 $ 0 $ 2,126
Gamco Investors Inc Et Al 2016-09-30 20,000 No Change 0 $ 0 $ 286
Panagora Asset Management Inc 2016-09-30 2,700 No Change 0 $ 0 $ 38
I G Investment Management Ltd 2016-09-30 105,830 No Change 0 $ 0 $ 1,516
Nisa Investment Advisors Llc 2016-09-30 22,000 No Change 0 $ 0 $ 315
Teachers Advisors Inc 2016-09-30 119,728 No Change 0 $ 0 $ 1,715
Enterprise Financial Services Corp 2016-09-30 22 No Change 0 $ 0 $ 0
Gabelli Funds Llc 2016-09-30 34,000 No Change 0 $ 0 $ 487
Nationwide Fund Advisors 2016-09-30 49,823 No Change 0 $ 0 $ 713
Massmutual Trust Co Fsb Adv 2016-06-30 2,400 No Change 0 $ 0 $ 33
Adams Diversified Equity Fund Inc 2016-09-30 21,500 No Change 0 $ 0 $ 308
Whittier Trust Co 2016-09-30 260 No Change 0 $ 0 $ 3
Northwestern Mutual Wealth Management Co 2016-09-30 36 No Change 0 $ 0 $ 0
Prescott Group Capital Management L L C 2016-09-30 102,750 No Change 0 $ 0 $ 1,472
Piedmont Investment Advisors Llc 2016-09-30 40 No Change 0 $ 0 $ 0
Advisors Asset Management Inc 2016-09-30 58 No Change 0 $ 0 $ 0
Fortress Investment Group Llc 2016-09-30 179,018 No Change 0 $ 0 $ 2,565
Employees Retirement System Of Texas 2016-09-30 170,000 No Change 0 $ 0 $ 2,436
First Republic Investment Management Inc 2016-09-30 48,453 No Change 0 $ 0 $ 694
Msi Financial Services Inc 2016-09-30 110 No Change 0 $ 0 $ 1
Wealthtrust-Arizona Llc 2016-09-30 100 No Change 0 $ 0 $ 1
Usa Mutuals Advisors Inc 2016-09-30 58,000 No Change 0 $ 0 $ 831
Counsel Portfolio Services Inc 2016-06-30 21,249 No Change 0 $ 0 $ 296
Sevenbridge Financial Group Llc 2016-09-30 2,315 No Change 0 $ 0 $ 33
Cwm Llc 2016-09-30 332 No Change 0 $ 0 $ 4
Creative Planning 2016-09-30 800 No Change 0 $ 0 $ 11
Concannon Wealth Management Llc 2016-09-30 100 No Change 0 $ 0 $ 1
Broad Run Investment Management Llc 2016-09-30 1,197,772 No Change 0 $ 0 $ 17,164
Alexandria Capital Llc 2016-09-30 2 No Change 0 $ 0 $ 0
Swiss National Bank 2016-09-30 116,400 No Change 0 $ 0 $ 1,668
Vantage Investment Advisors Llc 2016-09-30 67 No Change 0 $ 0 $ 0
Quadrant Capital Group Llc 2016-09-30 46 No Change 0 $ 0 $ 0
Ifp Advisors Inc 2016-09-30 161 Sold Some -15 $ -0 $ 2
Blackrock Investment Management Llc 2016-09-30 285,239 Sold Some -62 $ -0 $ 4,087
Hudock Capital Group Llc 2016-09-30 0 Sold All -200 $ -2 $ 0
Checchi Capital Advisers Llc 2016-09-30 0 Sold All -383 $ -5 $ 0
Rhumbline Advisers 2016-09-30 84,431 Sold Some -400 $ -5 $ 1,209
Connors Investor Services Inc 2016-09-30 27,819 Sold Some -475 $ -6 $ 398
Pnc Financial Services Group Inc 2016-09-30 677 Sold Some -486 $ -6 $ 9
Tower Research Capital Llc Trc 2016-09-30 0 Sold All -1,750 $ -25 $ 0
Stevens Capital Management Lp 2016-09-30 13,908 Sold Some -1,913 $ -27 $ 199
First Allied Advisory Services Inc 2016-09-30 47,013 Sold Some -2,189 $ -31 $ 673
Stoneridge Investment Partners Llc 2016-09-30 129,984 Sold Some -2,467 $ -35 $ 1,862
Legal General Group Plc 2016-09-30 18,036 Sold Some -2,577 $ -36 $ 258
Springbok Capital Management Llc 2016-09-30 0 Sold All -2,600 $ -37 $ 0
Frontier Investment Mgmt Co 2016-09-30 136,274 Sold Some -2,990 $ -42 $ 1,952
Verition Fund Management Llc 2016-09-30 12,118 Sold Some -3,147 $ -45 $ 173
Sei Investments Co 2016-09-30 133 Sold Some -5,328 $ -76 $ 1
Northern Trust Corp 2016-09-30 878,541 Sold Some -5,849 $ -83 $ 12,589
Teacher Retirement System Of Texas 2016-09-30 0 Sold All -9,998 $ -143 $ 0
Aperio Group Llc 2016-09-30 0 Sold All -10,580 $ -151 $ 0
Quantitative Investment Management Llc 2016-09-30 0 Sold All -10,600 $ -151 $ 0
Tudor Investment Corp Et Al 2016-09-30 21,000 Sold Some -10,900 $ -156 $ 300
Quantbot Technologies Lp 2016-09-30 0 Sold All -11,871 $ -170 $ 0
Peak6 Investments L P 2016-09-30 41,920 Sold Some -11,936 $ -171 $ 600
Dimensional Fund Advisors Lp 2016-09-30 760,906 Sold Some -14,900 $ -213 $ 10,903
Connor Clark Lunn Investment Management Ltd 2016-09-30 0 Sold All -15,900 $ -227 $ 0
Palo Capital Inc 2016-09-30 10,406 Sold Some -16,794 $ -240 $ 149
Cubist Systematic Strategies Llc 2016-09-30 21,444 Sold Some -17,543 $ -251 $ 307
State Of New Jersey Common Pension Fund D 2016-09-30 0 Sold All -20,000 $ -286 $ 0
Campbell Co Investment Adviser Llc 2016-09-30 11,046 Sold Some -24,611 $ -352 $ 158
Quadrature Capital Ltd 2016-09-30 0 Sold All -27,801 $ -398 $ 0
Oberweis Asset Management Inc 2016-09-30 0 Sold All -29,900 $ -428 $ 0
Parametrica Management Ltd 2016-09-30 0 Sold All -29,973 $ -429 $ 0
Two Sigma Securities Llc 2016-09-30 0 Sold All -30,333 $ -434 $ 0
Dynamic Technology Lab Private Ltd 2016-09-30 0 Sold All -33,913 $ -485 $ 0
Kcg Holdings Inc 2016-09-30 33,074 Sold Some -39,838 $ -570 $ 473
Convergence Investment Partners Llc 2016-09-30 50,966 Sold Some -42,762 $ -612 $ 730
Trexquant Investment Lp 2016-09-30 11,900 Sold Some -46,379 $ -664 $ 170
Bridgeway Capital Management Inc 2016-09-30 209,300 Sold Some -50,000 $ -716 $ 2,999
Pacad Investment Ltd 2016-09-30 25,300 Sold Some -50,200 $ -719 $ 362
Addison Clark Management L L C 2016-09-30 222,037 Sold Some -52,000 $ -745 $ 3,181
Systematic Financial Management Lp 2016-09-30 428,500 Sold Some -56,675 $ -812 $ 6,140
Mackenzie Financial Corp 2016-09-30 0 Sold All -60,090 $ -861 $ 0
Shellback Capital Lp 2016-09-30 406,460 Sold Some -75,000 $ -1,074 $ 5,824
Cornerstone Capital Management Holdings Llc 2016-09-30 0 Sold All -83,900 $ -1,202 $ 0
Engineers Gate Manager Lp 2016-09-30 77,713 Sold Some -95,188 $ -1,364 $ 1,113
Bogle Investment Management L P De 2016-09-30 0 Sold All -97,687 $ -1,399 $ 0
Highbridge Capital Management Llc 2016-09-30 90,102 Sold Some -111,231 $ -1,593 $ 1,291
Covalent Partners Llc 2016-09-30 604,054 Sold Some -118,233 $ -1,694 $ 8,656
A R T Advisors Llc 2016-09-30 0 Sold All -137,497 $ -1,970 $ 0
Parametric Portfolio Associates Llc 2016-09-30 336,564 Sold Some -167,607 $ -2,401 $ 4,822
Arbor Capital Management Llc 2016-06-30 0 Sold All -207,124 $ -2,889 $ 0
Eos Focused Equity Management L P 2016-09-30 0 Sold All -205,620 $ -2,946 $ 0
Lomas Capital Management Llc 2016-09-30 0 Sold All -335,284 $ -4,804 $ 0
Rk Capital Management Llc 2016-09-30 1,347,800 Sold Some -405,500 $ -5,810 $ 19,313
Gotham Asset Management Llc 2016-09-30 0 Sold All -427,587 $ -6,127 $ 0
Par Capital Management Inc 2016-09-30 3,344,013 Sold Some -428,000 $ -6,133 $ 47,919
Davenport Co Llc 2016-09-30 0 Sold All -724,651 $ -10,384 $ 0
Highline Capital Management L P 2016-09-30 0 Sold All -1,463,303 $ -20,969 $ 0
Chartwell Investment Partners Llc 2016-09-30 0 Sold All -1,812,600 $ -25,974 $ 0